Time;durP1;ratioP1;P1;durP2;ratioP2;P2;SDS_P1;SDS_P2;PMS_P1;PMS_P2;Temp;Humidity;BMP_temperature;BMP_pressure;BME280_temperature;BME280_humidity;BME280_pressure;Samples;Min_cycle;Max_cycle;Signal;HPM_P1;HPM_P2
2023/05/18 00:01:15;;;;;;;;;;;;;;;9.33;59.92;102762.66;5076942;28;19916;-59
2023/05/18 00:03:41;;;;;;;;;;;;;;;9.29;60.04;102756.75;5078951;28;19924;-58
2023/05/18 00:06:06;;;;;;;;;;;;;;;9.27;59.96;102752.53;5074224;28;19923;-59
2023/05/18 00:08:35;;;;;;;;;;;;;;;9.24;60.35;102752.72;5071571;28;19920;-59
2023/05/18 00:11:03;;;;;;;;;;;;;;;9.19;60.28;102745.13;5069022;28;20360;-59
2023/05/18 00:13:29;;;;;;;;;;;;;;;9.17;60.35;102754.16;5068263;28;19920;-60
2023/05/18 00:15:55;;;;;;;;;;;;;;;9.14;60.35;102754.38;5079990;28;19969;-59
2023/05/18 00:18:22;;;;;;;;;;;;;;;9.10;60.68;102753.78;5080081;28;20415;-60
2023/05/18 00:20:49;;;;;;;;;;;;;;;9.10;60.62;102755.56;5084519;28;19916;-60
2023/05/18 00:23:15;;;;;;;;;;;;;;;9.04;61.16;102754.22;5082454;28;20406;-60
2023/05/18 00:25:40;;;;;;;;;;;;;;;9.00;61.25;102761.56;5072143;28;20401;-59
2023/05/18 00:28:05;;;;;;;;;;;;;;;8.96;61.06;102759.22;5072136;28;19921;-59
2023/05/18 00:30:30;;;;;;;;;;;;;;;8.92;61.41;102761.25;5081454;28;19951;-59
2023/05/18 00:32:55;;;;;;;;;;;;;;;8.88;60.91;102757.16;5075284;28;19921;-59
2023/05/18 00:35:21;;;;;;;;;;;;;;;8.86;61.41;102758.22;5077154;28;19953;-60
2023/05/18 00:37:46;;;;;;;;;;;;;;;8.83;61.08;102758.44;5075405;28;19920;-60
2023/05/18 00:40:11;;;;;;;;;;;;;;;8.82;61.15;102767.34;5077864;28;20304;-60
2023/05/18 00:42:36;;;;;;;;;;;;;;;8.79;61.35;102764.94;5082443;28;19924;-60
2023/05/18 00:45:02;;;;;;;;;;;;;;;8.76;61.41;102765.16;5079626;28;19917;-59
2023/05/18 00:47:27;;;;;;;;;;;;;;;8.72;61.59;102761.06;5071723;28;19956;-60
2023/05/18 00:49:53;;;;;;;;;;;;;;;8.68;61.53;102771.88;5074253;28;19916;-59
2023/05/18 00:52:18;;;;;;;;;;;;;;;8.65;61.78;102769.41;5075984;28;19973;-59
2023/05/18 00:54:44;;;;;;;;;;;;;;;8.63;62.06;102763.38;5079317;28;20010;-60
2023/05/18 00:57:09;;;;;;;;;;;;;;;8.60;62.02;102766.25;5079354;28;19920;-59
2023/05/18 00:59:34;;;;;;;;;;;;;;;8.59;61.84;102769.88;5075395;28;19927;-60
2023/05/18 01:02:00;;;;;;;;;;;;;;;8.57;62.25;102763.84;5077975;28;19916;-59
2023/05/18 01:04:26;;;;;;;;;;;;;;;8.54;62.22;102758.75;5069223;28;20008;-59
2023/05/18 01:06:55;;;;;;;;;;;;;;;8.52;62.20;102765.13;5078367;28;19947;-59
2023/05/18 01:09:20;;;;;;;;;;;;;;;8.51;62.26;102766.09;5075700;28;19943;-60
2023/05/18 01:11:56;;;;;;;;;;;;;;;8.47;62.51;102760.16;5067914;28;20397;-59
2023/05/18 01:14:25;;;;;;;;;;;;;;;8.46;62.67;102765.56;5075942;28;19916;-60
2023/05/18 01:16:54;;;;;;;;;;;;;;;8.44;62.97;102763.03;5075503;28;19927;-60
2023/05/18 01:19:36;;;;;;;;;;;;;;;8.42;63.15;102770.25;5078886;28;20415;-60
2023/05/18 01:22:07;;;;;;;;;;;;;;;8.38;63.44;102774.91;5077931;28;19916;-60
2023/05/18 01:24:33;;;;;;;;;;;;;;;8.36;64.01;102774.16;5081694;28;19967;-59
2023/05/18 01:26:59;;;;;;;;;;;;;;;8.34;63.87;102781.34;5081717;28;19955;-60
2023/05/18 01:29:25;;;;;;;;;;;;;;;8.31;64.24;102778.88;5079266;28;19916;-59
2023/05/18 01:31:51;;;;;;;;;;;;;;;8.27;64.27;102777.41;5078292;28;20297;-59
2023/05/18 01:34:16;;;;;;;;;;;;;;;8.23;64.21;102775.94;5073097;28;19921;-59
2023/05/18 01:36:41;;;;;;;;;;;;;;;8.20;64.24;102773.50;5077278;28;19928;-59
2023/05/18 01:39:08;;;;;;;;;;;;;;;8.18;64.25;102778.06;5081494;28;19920;-60
2023/05/18 01:41:35;;;;;;;;;;;;;;;8.16;64.23;102781.78;5077011;28;19924;-60
2023/05/18 01:44:00;;;;;;;;;;;;;;;8.11;64.52;102776.81;5080327;28;19912;-60
2023/05/18 01:46:44;;;;;;;;;;;;;;;8.10;64.78;102775.13;5085356;28;19920;-59
2023/05/18 01:49:17;;;;;;;;;;;;;;;8.06;64.94;102778.91;5085142;28;20417;-59
2023/05/18 01:51:44;;;;;;;;;;;;;;;8.05;64.88;102779.88;5081708;28;19920;-60
2023/05/18 01:54:10;;;;;;;;;;;;;;;8.04;64.78;102780.81;5074959;28;20003;-59
2023/05/18 01:56:36;;;;;;;;;;;;;;;8.02;64.68;102778.28;5077957;28;19999;-59
2023/05/18 01:59:01;;;;;;;;;;;;;;;8.00;64.65;102780.19;5077855;28;20335;-59
2023/05/18 02:01:27;;;;;;;;;;;;;;;7.99;64.69;102777.66;5081793;28;19919;-59
2023/05/18 02:03:52;;;;;;;;;;;;;;;7.98;64.67;102770.66;5089224;28;19918;-58
2023/05/18 02:06:17;;;;;;;;;;;;;;;7.97;64.75;102776.91;5079805;28;19940;-59
2023/05/18 02:08:42;;;;;;;;;;;;;;;7.97;64.89;102772.47;5072440;28;19959;-59
2023/05/18 02:11:07;;;;;;;;;;;;;;;7.95;65.06;102768.25;5073824;28;20019;-58
2023/05/18 02:13:33;;;;;;;;;;;;;;;7.93;65.17;102771.00;5075301;28;19916;-59
2023/05/18 02:15:58;;;;;;;;;;;;;;;7.94;65.37;102774.47;5080523;28;19916;-59
2023/05/18 02:18:25;;;;;;;;;;;;;;;7.90;65.12;102765.91;5085570;28;19920;-59
2023/05/18 02:20:57;;;;;;;;;;;;;;;7.90;65.46;102765.06;5075219;28;19924;-59
2023/05/18 02:23:22;;;;;;;;;;;;;;;7.89;65.64;102766.88;5071300;28;19920;-57
2023/05/18 02:25:47;;;;;;;;;;;;;;;7.89;65.61;102761.56;5077213;28;19948;-59
2023/05/18 02:28:12;;;;;;;;;;;;;;;7.88;65.59;102754.59;5078096;28;19923;-59
2023/05/18 02:30:37;;;;;;;;;;;;;;;7.87;66.07;102762.63;5078413;28;19964;-60
2023/05/18 02:33:03;;;;;;;;;;;;;;;7.86;65.90;102758.31;5075032;28;19924;-60
2023/05/18 02:35:28;;;;;;;;;;;;;;;7.82;65.89;102749.72;5079293;28;19916;-59
2023/05/18 02:37:54;;;;;;;;;;;;;;;7.83;65.88;102750.59;5082220;28;20007;-60
2023/05/18 02:40:19;;;;;;;;;;;;;;;7.80;65.92;102751.59;5078329;28;19935;-59
2023/05/18 02:42:45;;;;;;;;;;;;;;;7.79;66.25;102755.22;5080441;28;19927;-59
2023/05/18 02:45:10;;;;;;;;;;;;;;;7.76;66.16;102750.97;5081471;28;20081;-60
2023/05/18 02:47:35;;;;;;;;;;;;;;;7.74;66.44;102752.88;5083464;28;19963;-59
2023/05/18 02:50:00;;;;;;;;;;;;;;;7.73;66.46;102755.63;5083632;28;19923;-60
2023/05/18 02:52:26;;;;;;;;;;;;;;;7.71;66.33;102755.75;5080994;28;19920;-59
2023/05/18 02:54:53;;;;;;;;;;;;;;;7.69;66.29;102754.16;5083070;28;19927;-59
2023/05/18 02:57:19;;;;;;;;;;;;;;;7.66;66.48;102752.56;5080139;28;19927;-59
2023/05/18 02:59:44;;;;;;;;;;;;;;;7.64;66.38;102759.75;5083808;28;19916;-59
2023/05/18 03:02:13;;;;;;;;;;;;;;;7.63;66.33;102755.44;5073030;28;20017;-59
2023/05/18 03:04:38;;;;;;;;;;;;;;;7.62;66.42;102763.47;5078915;28;19935;-59
2023/05/18 03:07:03;;;;;;;;;;;;;;;7.60;66.35;102752.16;5085219;28;19916;-60
2023/05/18 03:09:28;;;;;;;;;;;;;;;7.60;66.50;102762.72;5076939;28;19919;-59
2023/05/18 03:11:53;;;;;;;;;;;;;;;7.57;66.64;102753.22;5077228;28;20296;-60
2023/05/18 03:14:19;;;;;;;;;;;;;;;7.53;66.83;102751.72;5084624;28;20423;-59
2023/05/18 03:16:44;;;;;;;;;;;;;;;7.52;66.92;102752.69;5077197;28;19931;-58
2023/05/18 03:19:09;;;;;;;;;;;;;;;7.51;66.94;102756.25;5083378;28;19920;-58
2023/05/18 03:21:35;;;;;;;;;;;;;;;7.48;67.02;102748.50;5083891;28;20270;-58
2023/05/18 03:24:01;;;;;;;;;;;;;;;7.47;67.32;102754.75;5073302;28;19912;-58
2023/05/18 03:26:29;;;;;;;;;;;;;;;7.45;67.73;102754.00;5083285;28;21506;-59
2023/05/18 03:28:54;;;;;;;;;;;;;;;7.43;67.97;102751.47;5082941;28;19916;-59
2023/05/18 03:31:20;;;;;;;;;;;;;;;7.40;68.23;102756.13;5082235;28;20377;-59
2023/05/18 03:33:45;;;;;;;;;;;;;;;7.39;68.22;102754.44;5086541;28;19912;-59
2023/05/18 03:36:11;;;;;;;;;;;;;;;7.37;68.29;102758.97;5076964;28;20046;-60
2023/05/18 03:38:36;;;;;;;;;;;;;;;7.35;68.32;102759.09;5075562;28;19931;-60
2023/05/18 03:41:02;;;;;;;;;;;;;;;7.32;68.51;102750.50;5068885;28;20003;-58
2023/05/18 03:43:28;;;;;;;;;;;;;;;7.32;68.40;102755.81;5071650;28;19924;-59
2023/05/18 03:45:53;;;;;;;;;;;;;;;7.30;68.50;102757.69;5070606;28;20101;-60
2023/05/18 03:48:19;;;;;;;;;;;;;;;7.28;68.58;102754.31;5079053;28;20421;-59
2023/05/18 03:50:45;;;;;;;;;;;;;;;7.27;68.60;102755.25;5073803;28;19986;-59
2023/05/18 03:53:10;;;;;;;;;;;;;;;7.24;68.77;102758.97;5087781;28;20573;-59
2023/05/18 03:55:35;;;;;;;;;;;;;;;7.26;68.57;102766.78;5078252;28;19920;-58
2023/05/18 03:58:02;;;;;;;;;;;;;;;7.25;68.86;102765.09;5080562;28;20018;-58
2023/05/18 04:00:27;;;;;;;;;;;;;;;7.24;68.82;102764.25;5080925;28;19958;-57
2023/05/18 04:02:52;;;;;;;;;;;;;;;7.23;68.69;102764.31;5073483;28;19959;-58
2023/05/18 04:05:17;;;;;;;;;;;;;;;7.23;68.83;102770.47;5080515;28;20369;-60
2023/05/18 04:07:45;;;;;;;;;;;;;;;7.23;68.82;102767.84;5074297;28;19974;-60
2023/05/18 04:10:11;;;;;;;;;;;;;;;7.24;68.91;102769.53;5081155;28;20336;-60
2023/05/18 04:12:36;;;;;;;;;;;;;;;7.25;68.88;102773.03;5078019;28;20424;-58
2023/05/18 04:15:02;;;;;;;;;;;;;;;7.24;69.10;102766.03;5080687;28;19916;-57
2023/05/18 04:17:28;;;;;;;;;;;;;;;7.24;69.14;102777.47;5078819;28;19921;-58
2023/05/18 04:19:53;;;;;;;;;;;;;;;7.24;69.61;102773.97;5083963;28;19912;-58
2023/05/18 04:22:18;;;;;;;;;;;;;;;7.23;69.67;102769.59;5073591;28;19917;-59
2023/05/18 04:24:47;;;;;;;;;;;;;;;7.26;69.73;102778.19;5079867;28;19920;-58
2023/05/18 04:27:12;;;;;;;;;;;;;;;7.25;69.96;102775.66;5080142;28;19916;-59
2023/05/18 04:29:38;;;;;;;;;;;;;;;7.27;69.98;102782.53;5075894;28;19940;-60
2023/05/18 04:32:03;;;;;;;;;;;;;;;7.28;70.48;102786.03;5073524;28;19920;-60
2023/05/18 04:34:30;;;;;;;;;;;;;;;7.28;70.46;102786.03;5080278;28;19913;-59
2023/05/18 04:36:57;;;;;;;;;;;;;;;7.25;70.82;102784.44;5082044;28;20073;-59
2023/05/18 04:39:23;;;;;;;;;;;;;;;7.27;70.94;102784.34;5069597;28;19916;-60
2023/05/18 04:41:49;;;;;;;;;;;;;;;7.28;71.17;102788.66;5070744;28;19924;-59
2023/05/18 04:44:14;;;;;;;;;;;;;;;7.28;71.50;102783.38;5084802;28;19912;-59
2023/05/18 04:46:40;;;;;;;;;;;;;;;7.28;71.55;102788.66;5078269;28;20037;-60
2023/05/18 04:49:05;;;;;;;;;;;;;;;7.29;71.58;102790.38;5068968;28;19964;-59
2023/05/18 04:51:30;;;;;;;;;;;;;;;7.27;71.44;102795.75;5077765;28;20482;-59
2023/05/18 04:53:55;;;;;;;;;;;;;;;7.26;71.42;102801.13;5080019;28;20040;-60
2023/05/18 04:56:21;;;;;;;;;;;;;;;7.26;71.74;102799.34;5079826;28;19916;-59
2023/05/18 04:58:47;;;;;;;;;;;;;;;7.25;71.63;102794.16;5076363;28;20374;-59
2023/05/18 05:01:14;;;;;;;;;;;;;;;7.28;71.70;102807.16;5069076;28;19930;-59
2023/05/18 05:03:39;;;;;;;;;;;;;;;7.28;71.69;102810.66;5076971;28;19920;-59
2023/05/18 05:06:04;;;;;;;;;;;;;;;7.29;72.03;102799.13;5073715;28;20310;-59
2023/05/18 05:08:30;;;;;;;;;;;;;;;7.31;71.82;102796.41;5083860;28;19923;-59
2023/05/18 05:10:55;;;;;;;;;;;;;;;7.33;71.89;102805.06;5087466;28;20382;-59
2023/05/18 05:13:20;;;;;;;;;;;;;;;7.36;71.86;102803.06;5080599;28;20353;-60
2023/05/18 05:15:45;;;;;;;;;;;;;;;7.40;72.46;102801.91;5073804;28;19969;-59
2023/05/18 05:18:10;;;;;;;;;;;;;;;7.45;72.81;102801.59;5072695;28;19920;-59
2023/05/18 05:20:36;;;;;;;;;;;;;;;7.47;72.90;102799.69;5071972;28;19938;-59
2023/05/18 05:23:01;;;;;;;;;;;;;;;7.49;72.63;102800.44;5083477;28;19991;-60
2023/05/18 05:25:26;;;;;;;;;;;;;;;7.51;72.87;102798.53;5085305;28;19924;-60
2023/05/18 05:27:51;;;;;;;;;;;;;;;7.52;72.96;102802.91;5075092;28;19947;-59
2023/05/18 05:30:16;;;;;;;;;;;;;;;7.54;72.74;102801.00;5081200;28;19919;-60
2023/05/18 05:32:41;;;;;;;;;;;;;;;7.57;72.82;102806.09;5078444;28;19947;-60
2023/05/18 05:35:07;;;;;;;;;;;;;;;7.58;73.09;102806.94;5078275;28;20011;-59
2023/05/18 05:37:32;;;;;;;;;;;;;;;7.60;72.86;102808.50;5078871;28;19931;-60
2023/05/18 05:39:58;;;;;;;;;;;;;;;7.62;73.03;102806.63;5074283;28;19924;-59
2023/05/18 05:42:24;;;;;;;;;;;;;;;7.66;72.88;102802.81;5071086;28;19920;-60
2023/05/18 05:44:49;;;;;;;;;;;;;;;7.69;72.80;102799.09;5088679;28;20299;-59
2023/05/18 05:47:15;;;;;;;;;;;;;;;7.72;73.35;102802.38;5080494;28;19916;-60
2023/05/18 05:49:40;;;;;;;;;;;;;;;7.80;73.14;102801.88;5079734;28;19924;-60
2023/05/18 05:52:05;;;;;;;;;;;;;;;7.87;73.67;102807.59;5076352;28;19931;-59
2023/05/18 05:54:30;;;;;;;;;;;;;;;7.95;73.42;102805.28;5081014;28;19916;-60
2023/05/18 05:56:55;;;;;;;;;;;;;;;8.03;73.11;102803.78;5081313;28;19926;-58
2023/05/18 05:59:21;;;;;;;;;;;;;;;8.08;73.03;102799.00;5079521;28;19923;-58
2023/05/18 06:01:46;;;;;;;;;;;;;;;8.14;73.13;102796.94;5079493;28;19925;-59
2023/05/18 06:04:14;;;;;;;;;;;;;;;8.20;73.18;102797.34;5079905;28;19943;-59
2023/05/18 06:06:39;;;;;;;;;;;;;;;8.23;72.86;102802.41;5079053;28;19973;-59
2023/05/18 06:09:04;;;;;;;;;;;;;;;8.29;72.92;102809.91;5083818;28;19912;-59
2023/05/18 06:11:30;;;;;;;;;;;;;;;8.34;73.28;102799.03;5077060;28;19913;-59
2023/05/18 06:13:55;;;;;;;;;;;;;;;8.39;72.70;102802.22;5088609;28;19958;-59
2023/05/18 06:16:20;;;;;;;;;;;;;;;8.44;72.96;102805.41;5085891;28;19977;-59
2023/05/18 06:18:47;;;;;;;;;;;;;;;8.50;72.68;102807.59;5071520;28;19974;-58
2023/05/18 06:21:13;;;;;;;;;;;;;;;8.51;72.23;102798.69;5075033;28;19912;-59
2023/05/18 06:23:38;;;;;;;;;;;;;;;8.56;72.07;102804.50;5081598;28;19919;-59
2023/05/18 06:26:03;;;;;;;;;;;;;;;8.62;72.13;102809.38;5078732;28;19959;-59
2023/05/18 06:28:28;;;;;;;;;;;;;;;8.68;71.61;102808.09;5088480;28;20003;-59
2023/05/18 06:30:53;;;;;;;;;;;;;;;8.69;70.98;102810.63;5079841;28;20024;-58
2023/05/18 06:33:20;;;;;;;;;;;;;;;8.74;71.41;102812.97;5077948;28;20431;-59
2023/05/18 06:35:45;;;;;;;;;;;;;;;8.82;70.89;102815.88;5085045;28;19966;-58
2023/05/18 06:38:10;;;;;;;;;;;;;;;8.92;70.32;102810.75;5070550;28;19921;-59
2023/05/18 06:40:35;;;;;;;;;;;;;;;8.97;69.96;102817.44;5075201;28;19923;-59
2023/05/18 06:43:00;;;;;;;;;;;;;;;9.00;69.67;102817.22;5081325;28;20301;-59
2023/05/18 06:45:25;;;;;;;;;;;;;;;9.11;69.47;102815.56;5075536;28;19954;-59
2023/05/18 06:47:51;;;;;;;;;;;;;;;9.18;69.41;102812.34;5079145;28;19919;-59
2023/05/18 06:50:16;;;;;;;;;;;;;;;9.23;68.91;102815.50;5076161;28;19916;-59
2023/05/18 06:52:41;;;;;;;;;;;;;;;9.24;68.63;102813.69;5079553;28;20065;-60
2023/05/18 06:55:07;;;;;;;;;;;;;;;9.30;69.19;102821.22;5073537;28;19924;-60
2023/05/18 06:57:33;;;;;;;;;;;;;;;9.40;68.95;102821.38;5070056;28;20011;-60
2023/05/18 06:59:58;;;;;;;;;;;;;;;9.48;68.61;102819.00;5080974;28;20057;-61
2023/05/18 07:02:23;;;;;;;;;;;;;;;9.58;68.41;102830.63;5079311;28;19916;-60
2023/05/18 07:04:48;;;;;;;;;;;;;;;9.66;68.08;102828.22;5081191;28;19931;-59
2023/05/18 07:07:14;;;;;;;;;;;;;;;9.77;68.43;102824.75;5086218;28;19974;-59
2023/05/18 07:09:42;;;;;;;;;;;;;;;9.90;68.29;102823.72;5076115;28;19916;-59
2023/05/18 07:12:07;;;;;;;;;;;;;;;10.01;67.85;102835.31;5079270;28;19996;-59
2023/05/18 07:14:32;;;;;;;;;;;;;;;10.09;67.04;102830.25;5083472;28;19951;-59
2023/05/18 07:16:58;;;;;;;;;;;;;;;10.18;66.95;102829.56;5081887;28;20448;-59
2023/05/18 07:19:23;;;;;;;;;;;;;;;10.26;66.20;102832.47;5083450;28;19912;-59
2023/05/18 07:21:48;;;;;;;;;;;;;;;10.28;65.28;102833.19;5082339;28;20000;-60
2023/05/18 07:24:13;;;;;;;;;;;;;;;10.32;65.37;102834.66;5085481;28;20263;-60
2023/05/18 07:26:38;;;;;;;;;;;;;;;10.35;64.80;102838.88;5074975;28;19921;-60
2023/05/18 07:29:04;;;;;;;;;;;;;;;10.40;64.93;102837.53;5068226;28;20015;-60
2023/05/18 07:31:30;;;;;;;;;;;;;;;10.41;64.34;102836.59;5077416;28;19920;-59
2023/05/18 07:33:55;;;;;;;;;;;;;;;10.42;64.18;102835.63;5076517;28;19916;-59
2023/05/18 07:36:20;;;;;;;;;;;;;;;10.41;64.09;102839.25;5085864;28;19927;-59
2023/05/18 07:38:46;;;;;;;;;;;;;;;10.45;63.90;102845.19;5076706;28;19943;-59
2023/05/18 07:41:11;;;;;;;;;;;;;;;10.49;63.94;102847.47;5081818;28;19968;-60
2023/05/18 07:43:36;;;;;;;;;;;;;;;10.49;63.53;102843.97;5080666;28;19943;-60
2023/05/18 07:46:01;;;;;;;;;;;;;;;10.52;63.67;102841.06;5080054;28;19912;-59
2023/05/18 07:48:27;;;;;;;;;;;;;;;10.58;63.84;102853.00;5079552;28;19947;-59
2023/05/18 07:50:52;;;;;;;;;;;;;;;10.64;63.97;102842.75;5083859;28;19912;-59
2023/05/18 07:53:18;;;;;;;;;;;;;;;10.70;63.54;102850.25;5083056;28;19960;-59
2023/05/18 07:55:43;;;;;;;;;;;;;;;10.76;63.86;102849.75;5075580;28;19916;-60
2023/05/18 07:58:08;;;;;;;;;;;;;;;10.84;64.26;102863.25;5077018;28;19924;-60
2023/05/18 08:00:33;;;;;;;;;;;;;;;10.95;63.97;102854.41;5081650;28;20385;-60
2023/05/18 08:02:59;;;;;;;;;;;;;;;11.01;63.16;102853.94;5085824;28;19919;-60
2023/05/18 08:05:24;;;;;;;;;;;;;;;11.06;62.81;102859.72;5073702;28;19920;-60
2023/05/18 08:07:50;;;;;;;;;;;;;;;11.12;62.89;102858.38;5069401;28;19924;-61
2023/05/18 08:10:15;;;;;;;;;;;;;;;11.20;62.73;102861.25;5078022;28;19924;-60
2023/05/18 08:12:40;;;;;;;;;;;;;;;11.25;63.06;102864.38;5076718;28;19916;-60
2023/05/18 08:15:06;;;;;;;;;;;;;;;11.34;62.76;102862.81;5069239;28;19936;-60
2023/05/18 08:17:31;;;;;;;;;;;;;;;11.34;62.36;102857.47;5078693;28;19932;-60
2023/05/18 08:19:56;;;;;;;;;;;;;;;11.32;61.50;102864.75;5082605;28;19951;-60
2023/05/18 08:22:21;;;;;;;;;;;;;;;11.38;61.80;102865.06;5085357;28;19935;-60
2023/05/18 08:24:47;;;;;;;;;;;;;;;11.48;62.22;102863.34;5077231;28;20473;-60
2023/05/18 08:27:12;;;;;;;;;;;;;;;11.63;62.09;102861.22;5070356;28;20409;-60
2023/05/18 08:29:37;;;;;;;;;;;;;;;11.76;61.71;102864.53;5077400;28;20405;-59
2023/05/18 08:32:04;;;;;;;;;;;;;;;11.84;60.72;102863.06;5078829;28;20007;-58
2023/05/18 08:34:29;;;;;;;;;;;;;;;11.85;60.75;102857.63;5080279;28;20035;-60
2023/05/18 08:36:55;;;;;;;;;;;;;;;11.95;60.59;102850.56;5083995;28;20453;-60
2023/05/18 08:39:21;;;;;;;;;;;;;;;12.05;59.94;102850.63;5072227;28;19927;-59
2023/05/18 08:41:54;;;;;;;;;;;;;;;12.14;59.73;102854.31;5084732;28;20418;-59
2023/05/18 08:44:21;;;;;;;;;;;;;;;12.28;60.00;102860.16;5074708;28;19913;-60
2023/05/18 08:46:49;;;;;;;;;;;;;;;12.41;60.04;102843.94;5080676;28;19916;-59
2023/05/18 08:49:16;;;;;;;;;;;;;;;12.52;59.34;102838.53;5075766;28;19974;-60
2023/05/18 08:51:43;;;;;;;;;;;;;;;12.52;58.58;102845.69;5077757;28;19918;-59
2023/05/18 08:54:10;;;;;;;;;;;;;;;12.58;58.15;102843.31;5076335;28;19912;-59
2023/05/18 08:56:37;;;;;;;;;;;;;;;12.69;58.05;102839.69;5076494;28;19912;-59
2023/05/18 08:59:06;;;;;;;;;;;;;;;12.82;57.79;102834.97;5078577;28;19955;-60
2023/05/18 09:01:31;;;;;;;;;;;;;;;13.02;57.54;102838.53;5076755;28;19958;-60
2023/05/18 09:03:57;;;;;;;;;;;;;;;13.06;57.01;102834.63;5079129;28;19920;-60
2023/05/18 09:06:27;;;;;;;;;;;;;;;13.07;56.70;102830.13;5079197;28;19928;-60
2023/05/18 09:08:52;;;;;;;;;;;;;;;13.09;55.75;102833.50;5077891;28;19916;-60
2023/05/18 09:11:18;;;;;;;;;;;;;;;13.14;56.36;102836.59;5086674;28;19916;-59
2023/05/18 09:13:43;;;;;;;;;;;;;;;13.31;55.77;102826.09;5077144;28;19916;-60
2023/05/18 09:16:08;;;;;;;;;;;;;;;13.50;54.43;102824.41;5079394;28;20396;-61
2023/05/18 09:18:34;;;;;;;;;;;;;;;13.64;54.32;102832.00;5082738;28;19921;-60
2023/05/18 09:20:59;;;;;;;;;;;;;;;13.72;53.71;102829.47;5075806;28;20015;-60
2023/05/18 09:23:24;;;;;;;;;;;;;;;13.74;53.88;102819.47;5076284;28;20033;-60
2023/05/18 09:25:51;;;;;;;;;;;;;;;13.78;53.64;102823.53;5083548;28;20384;-59
2023/05/18 09:28:27;;;;;;;;;;;;;;;13.76;52.95;102816.66;5084631;28;19912;-60
2023/05/18 09:30:52;;;;;;;;;;;;;;;13.91;53.10;102815.25;5084458;28;19916;-60
2023/05/18 09:33:20;;;;;;;;;;;;;;;14.16;53.31;102813.72;5083494;28;19927;-60
2023/05/18 09:35:46;;;;;;;;;;;;;;;14.29;52.38;102816.94;5077434;28;20363;-59
2023/05/18 09:38:14;;;;;;;;;;;;;;;14.38;53.19;102820.56;5082157;28;19968;-61
2023/05/18 09:40:42;;;;;;;;;;;;;;;14.57;52.97;102824.03;5083649;28;19927;-60
2023/05/18 09:43:07;;;;;;;;;;;;;;;14.77;53.28;102811.41;5081533;28;19923;-60
2023/05/18 09:45:33;;;;;;;;;;;;;;;14.91;52.29;102818.06;5083979;28;19924;-61
2023/05/18 09:47:58;;;;;;;;;;;;;;;15.03;51.58;102813.31;5077973;28;19913;-61
2023/05/18 09:50:23;;;;;;;;;;;;;;;15.16;51.33;102817.31;5067754;28;20491;-60
2023/05/18 09:52:49;;;;;;;;;;;;;;;15.24;49.89;102811.19;5084589;28;19912;-60
2023/05/18 09:55:15;;;;;;;;;;;;;;;15.38;50.18;102807.16;5085776;28;19919;-61
2023/05/18 09:57:42;;;;;;;;;;;;;;;15.33;49.04;102801.44;5089822;28;20133;-61
2023/05/18 10:00:11;;;;;;;;;;;;;;;15.26;49.31;102808.38;5078809;28;19935;-60
2023/05/18 10:02:47;;;;;;;;;;;;;;;15.30;49.74;102804.38;5090508;28;19916;-60
2023/05/18 10:05:22;;;;;;;;;;;;;;;15.43;49.29;102804.84;5077265;28;19916;-61
2023/05/18 10:07:49;;;;;;;;;;;;;;;15.58;49.51;102799.78;5079752;28;20314;-60
2023/05/18 10:10:18;;;;;;;;;;;;;;;15.72;49.07;102807.28;5072127;28;19919;-60
2023/05/18 10:12:44;;;;;;;;;;;;;;;15.85;49.01;102798.81;5086211;28;19924;-60
2023/05/18 10:15:12;;;;;;;;;;;;;;;15.94;48.19;102796.06;5076998;28;19926;-61
2023/05/18 10:17:38;;;;;;;;;;;;;;;15.97;48.08;102797.59;5082847;28;19924;-61
2023/05/18 10:20:07;;;;;;;;;;;;;;;15.93;48.41;102786.34;5071164;28;20401;-61
2023/05/18 10:22:33;;;;;;;;;;;;;;;15.96;48.30;102798.59;5080828;28;19938;-60
2023/05/18 10:25:00;;;;;;;;;;;;;;;15.95;47.55;102786.19;5074169;28;19916;-60
2023/05/18 10:27:26;;;;;;;;;;;;;;;15.92;47.23;102791.88;5078642;28;19918;-60
2023/05/18 10:29:53;;;;;;;;;;;;;;;16.06;47.41;102783.22;5087636;28;20312;-60
2023/05/18 10:32:19;;;;;;;;;;;;;;;16.18;47.05;102784.63;5073247;28;19917;-61
2023/05/18 10:34:45;;;;;;;;;;;;;;;16.22;46.86;102785.16;5072289;28;20389;-61
2023/05/18 10:37:10;;;;;;;;;;;;;;;16.18;46.52;102787.31;5070329;28;19958;-62
2023/05/18 10:39:38;;;;;;;;;;;;;;;16.00;46.55;102795.44;5072004;28;20259;-59
2023/05/18 10:42:07;;;;;;;;;;;;;;;15.94;46.37;102785.34;5073275;28;19917;-58
2023/05/18 10:44:34;;;;;;;;;;;;;;;15.92;46.86;102789.19;5073381;28;19916;-60
2023/05/18 10:46:59;;;;;;;;;;;;;;;16.04;46.76;102787.91;5075882;28;19917;-60
2023/05/18 10:49:25;;;;;;;;;;;;;;;16.22;46.81;102786.00;5077503;28;19916;-60
2023/05/18 10:51:53;;;;;;;;;;;;;;;16.29;46.91;102781.69;5080242;28;20002;-60
2023/05/18 10:54:20;;;;;;;;;;;;;;;16.25;46.83;102780.31;5071705;28;19921;-60
2023/05/18 10:56:47;;;;;;;;;;;;;;;16.18;45.79;102770.38;5070861;28;19916;-59
2023/05/18 10:59:13;;;;;;;;;;;;;;;16.12;45.90;102779.91;5071576;28;19923;-60
2023/05/18 11:01:40;;;;;;;;;;;;;;;16.20;46.75;102776.44;5077767;28;19923;-60
2023/05/18 11:04:06;;;;;;;;;;;;;;;16.25;46.43;102774.97;5085437;28;19963;-60
2023/05/18 11:06:33;;;;;;;;;;;;;;;16.39;46.88;102771.66;5075280;28;19994;-60
2023/05/18 11:08:59;;;;;;;;;;;;;;;16.56;47.32;102764.53;5069107;28;19917;-60
2023/05/18 11:11:27;;;;;;;;;;;;;;;16.73;46.97;102758.22;5075741;28;19916;-60
2023/05/18 11:13:52;;;;;;;;;;;;;;;16.72;46.52;102759.22;5082306;28;21704;-60
2023/05/18 11:16:18;;;;;;;;;;;;;;;16.69;46.25;102761.38;5084303;28;19920;-60
2023/05/18 11:18:51;;;;;;;;;;;;;;;16.82;45.56;102755.56;5084798;28;19981;-60
2023/05/18 11:21:19;;;;;;;;;;;;;;;16.86;45.94;102760.44;5074845;28;19969;-60
2023/05/18 11:24:03;;;;;;;;;;;;;;;16.89;45.23;102760.09;5085700;28;19922;-60
2023/05/18 11:26:28;;;;;;;;;;;;;;;16.93;44.77;102753.38;5081544;28;20656;-60
2023/05/18 11:28:53;;;;;;;;;;;;;;;17.00;45.38;102751.72;5078202;28;19919;-61
2023/05/18 11:31:19;;;;;;;;;;;;;;;17.07;44.96;102759.13;5083938;28;19912;-61
2023/05/18 11:33:44;;;;;;;;;;;;;;;17.10;45.18;102754.25;5085728;28;19919;-61
2023/05/18 11:36:10;;;;;;;;;;;;;;;17.09;44.63;102752.59;5071152;28;19951;-61
2023/05/18 11:38:46;;;;;;;;;;;;;;;17.11;44.61;102758.63;5075498;28;19923;-61
2023/05/18 11:41:31;;;;;;;;;;;;;;;17.16;44.25;102755.44;5084432;28;20483;-61
2023/05/18 11:44:11;;;;;;;;;;;;;;;17.15;44.54;102749.22;5088415;28;19912;-61
2023/05/18 11:46:39;;;;;;;;;;;;;;;17.13;44.00;102755.78;5075012;28;19917;-61
2023/05/18 11:49:07;;;;;;;;;;;;;;;17.04;43.79;102736.94;5075294;28;20396;-59
2023/05/18 11:51:33;;;;;;;;;;;;;;;17.02;44.02;102746.19;5087636;28;19919;-60
2023/05/18 11:53:58;;;;;;;;;;;;;;;16.99;43.84;102741.16;5075173;28;19912;-60
2023/05/18 11:56:25;;;;;;;;;;;;;;;16.93;43.92;102731.91;5086829;28;19916;-60
2023/05/18 11:59:09;;;;;;;;;;;;;;;16.95;44.45;102739.81;5070584;28;20018;-60
2023/05/18 12:01:34;;;;;;;;;;;;;;;16.93;44.58;102739.13;5082709;28;19927;-60
2023/05/18 12:03:59;;;;;;;;;;;;;;;16.92;44.25;102737.44;5069769;28;19913;-60
2023/05/18 12:06:26;;;;;;;;;;;;;;;16.93;44.65;102736.44;5082766;28;20382;-60
2023/05/18 12:08:52;;;;;;;;;;;;;;;16.97;44.34;102740.47;5074564;28;20007;-61
2023/05/18 12:11:18;;;;;;;;;;;;;;;16.98;44.17;102734.09;5069438;28;19916;-61
2023/05/18 12:13:43;;;;;;;;;;;;;;;16.93;43.84;102715.81;5079317;28;19931;-61
2023/05/18 12:16:10;;;;;;;;;;;;;;;16.99;43.70;102723.19;5080638;28;19916;-60
2023/05/18 12:18:38;;;;;;;;;;;;;;;17.01;43.65;102723.03;5078608;28;19920;-61
2023/05/18 12:21:03;;;;;;;;;;;;;;;16.96;43.42;102728.91;5087374;28;19992;-61
2023/05/18 12:23:38;;;;;;;;;;;;;;;16.89;43.73;102727.88;5083666;28;19982;-61
2023/05/18 12:26:03;;;;;;;;;;;;;;;16.83;43.22;102731.25;5087310;28;19916;-60
2023/05/18 12:28:29;;;;;;;;;;;;;;;16.81;43.09;102725.22;5076303;28;20297;-60
2023/05/18 12:30:55;;;;;;;;;;;;;;;16.68;42.45;102723.00;5083410;28;19916;-60
2023/05/18 12:33:20;;;;;;;;;;;;;;;16.49;42.72;102722.44;5088559;28;19991;-59
2023/05/18 12:35:45;;;;;;;;;;;;;;;16.39;43.44;102722.53;5079605;28;20062;-60
2023/05/18 12:38:10;;;;;;;;;;;;;;;16.38;44.40;102719.03;5087332;28;19920;-60